デリー の空港の天気 - METARとTAF

インディラ・ガンディー国際空港 ( VIDP / DEL ) - インド デリー
飛行場実況気象(Metar)
観測時間02/17 20:00 IST (02/17 14:30 UTC)
風向・風速西 2m/s
視程2100m
天気現象煙霧
少しの雲 雲底高度 1220m
全天の4割程度の雲 雲底高度 3050m
気温17℃
湿度68%
気圧1012hPa
METARVIDP 171430Z 27003KT 2100 HZ FEW040 SCT100 17/11 Q1012 NOSIG
過去の天気等 Google飛行場航空写真 Wunderground天気予報

過去48時間のMETAR

飛行場予報(TAF)
発表時間: 2/17 19:30 IST (2/17 14:00 UTC)
予報対象時間: 17日20時 IST ~ 18日5時 IST
風向・風速不定 1m/s
視程1800m
天気現象煙霧 もや
少しの雲 雲底高度 1220m
全天の4割程度の雲 雲底高度 3050m
17日23時 IST ~ 18日1時 IST に徐々に
視程1000m
天気現象もや
TAF VIDP 171400Z 1715/1724 VRB02KT 1800 HZ BR FEW040 SCT100
BECMG 1718/1720 1000 BR